createdAt,value
2022-12-24T00:00:09.006Z,100855.38
2022-12-24T00:02:35.535Z,100872.69
2022-12-24T00:05:02.225Z,100867.88
2022-12-24T00:07:29.129Z,100830.50
2022-12-24T00:09:55.612Z,100826.28
2022-12-24T00:12:22.030Z,100821.75
2022-12-24T00:14:48.429Z,100833.31
2022-12-24T00:17:15.094Z,100845.22
2022-12-24T00:19:43.151Z,100835.13
2022-12-24T00:22:09.664Z,100842.06
2022-12-24T00:24:36.224Z,100816.91
2022-12-24T00:27:03.534Z,100804.25
2022-12-24T00:29:29.993Z,100779.22
2022-12-24T00:31:56.419Z,100763.09
2022-12-24T00:34:24.510Z,100779.22
2022-12-24T00:36:51.346Z,100791.00
2022-12-24T00:39:17.832Z,100820.97
2022-12-24T00:41:44.592Z,100828.31
2022-12-24T00:44:11.151Z,100850.31
2022-12-24T00:46:40.181Z,100870.78
2022-12-24T00:49:08.316Z,100888.00
2022-12-24T00:51:35.914Z,100889.53
2022-12-24T00:54:03.359Z,100897.69
2022-12-24T00:56:29.954Z,100887.72
2022-12-24T00:58:56.620Z,100868.31
2022-12-24T01:01:23.596Z,100869.81
2022-12-24T01:03:51.198Z,100872.53
2022-12-24T01:06:21.566Z,100889.53
2022-12-24T01:08:51.631Z,100897.81
2022-12-24T01:11:18.611Z,100910.16
2022-12-24T01:13:45.071Z,100915.44
2022-12-24T01:16:17.921Z,100909.13
2022-12-24T01:18:44.542Z,100916.09
2022-12-24T01:21:11.030Z,100918.78
2022-12-24T01:23:37.458Z,100921.69
2022-12-24T01:26:04.757Z,100910.66
2022-12-24T01:28:32.607Z,100901.19
2022-12-24T01:30:59.786Z,100903.41
2022-12-24T01:33:29.328Z,100923.59
2022-12-24T01:35:55.739Z,100910.78
2022-12-24T01:38:22.178Z,100907.94
2022-12-24T01:41:06.963Z,100896.75
2022-12-24T01:43:33.854Z,100881.84
2022-12-24T01:46:07.490Z,100892.84
2022-12-24T01:48:52.088Z,100910.31
2022-12-24T01:51:37.677Z,100910.63
2022-12-24T01:54:17.152Z,100905.50
2022-12-24T01:56:49.186Z,100931.00
2022-12-24T01:59:18.857Z,100929.91
2022-12-24T02:01:48.254Z,100924.94
2022-12-24T02:04:24.511Z,100897.97
2022-12-24T02:06:50.935Z,100869.97
2022-12-24T02:09:18.015Z,100869.03
2022-12-24T02:11:44.950Z,100873.44
2022-12-24T02:14:13.256Z,100888.03
2022-12-24T02:17:01.581Z,100896.06
2022-12-24T02:19:46.773Z,100882.06
2022-12-24T02:22:38.161Z,100890.50
2022-12-24T02:25:13.300Z,100880.09
2022-12-24T02:28:05.609Z,100874.38
2022-12-24T02:30:38.692Z,100866.69
2022-12-24T02:33:17.944Z,100862.31
2022-12-24T02:35:59.260Z,100850.88
2022-12-24T02:38:47.070Z,100851.75
2022-12-24T02:41:18.913Z,100858.22
2022-12-24T02:43:48.637Z,100875.44
2022-12-24T02:46:25.404Z,100888.06
2022-12-24T02:48:52.404Z,100883.84
2022-12-24T02:51:24.272Z,100896.53
2022-12-24T02:53:50.978Z,100907.06
2022-12-24T02:56:35.226Z,100885.50
2022-12-24T02:59:29.597Z,100883.53
2022-12-24T03:02:08.843Z,100879.91
2022-12-24T03:05:02.767Z,100869.66
2022-12-24T03:07:51.586Z,100887.44
2022-12-24T03:10:46.537Z,100910.78
2022-12-24T03:13:19.442Z,100923.59
2022-12-24T03:15:48.230Z,100922.84
2022-12-24T03:18:19.522Z,100912.16
2022-12-24T03:20:52.840Z,100908.88
2022-12-24T03:23:19.304Z,100895.13
2022-12-24T03:25:46.372Z,100882.31
2022-12-24T03:28:15.462Z,100867.88
2022-12-24T03:30:44.566Z,100895.13
2022-12-24T03:33:12.721Z,100898.63
2022-12-24T03:35:39.468Z,100899.81
2022-12-24T03:38:05.999Z,100906.78
2022-12-24T03:40:32.445Z,100916.69
2022-12-24T03:42:58.931Z,100917.63
2022-12-24T03:45:25.452Z,100911.56
2022-12-24T03:47:51.911Z,100898.91
2022-12-24T03:50:18.358Z,100895.47
2022-12-24T03:52:44.877Z,100885.03
2022-12-24T03:55:11.318Z,100885.81
2022-12-24T03:57:37.853Z,100893.50
2022-12-24T04:00:08.029Z,100890.47
2022-12-24T04:02:34.725Z,100889.88
2022-12-24T04:05:01.235Z,100866.81
2022-12-24T04:07:27.646Z,100874.50
2022-12-24T04:09:54.074Z,100866.03
2022-12-24T04:12:20.536Z,100879.44
2022-12-24T04:14:47.097Z,100882.91
2022-12-24T04:17:13.515Z,100873.00
2022-12-24T04:19:40.010Z,100884.31
2022-12-24T04:22:06.424Z,100885.94
2022-12-24T04:24:32.818Z,100878.41
2022-12-24T04:26:59.281Z,100881.59
2022-12-24T04:29:25.712Z,100887.78
2022-12-24T04:31:52.175Z,100873.13
2022-12-24T04:34:18.759Z,100869.50
2022-12-24T04:36:45.221Z,100869.06
2022-12-24T04:39:11.785Z,100851.91
2022-12-24T04:41:38.292Z,100847.03
2022-12-24T04:44:04.915Z,100836.78
2022-12-24T04:46:31.532Z,100837.72
2022-12-24T04:48:58.794Z,100843.00
2022-12-24T04:51:26.858Z,100842.25
2022-12-24T04:53:53.986Z,100841.50
2022-12-24T04:56:26.703Z,100838.19
2022-12-24T04:58:53.820Z,100842.53
2022-12-24T05:01:23.430Z,100853.19
2022-12-24T05:03:50.722Z,100847.34
2022-12-24T05:06:19.997Z,100852.78
2022-12-24T05:08:46.892Z,100875.81
2022-12-24T05:11:15.506Z,100885.00
2022-12-24T05:13:47.507Z,100894.34
2022-12-24T05:16:15.876Z,100901.63
2022-12-24T05:18:42.479Z,100900.41
2022-12-24T05:21:10.881Z,100899.34
2022-12-24T05:23:56.875Z,100896.19
2022-12-24T05:26:34.138Z,100914.84
2022-12-24T05:29:02.457Z,100912.28
2022-12-24T05:31:31.041Z,100930.53
2022-12-24T05:33:57.647Z,100932.66
2022-12-24T05:36:24.370Z,100916.84
2022-12-24T05:38:51.459Z,100897.84
2022-12-24T05:41:18.245Z,100895.00
2022-12-24T05:43:44.797Z,100900.13
2022-12-24T05:46:13.899Z,100891.06
2022-12-24T05:48:40.494Z,100878.84
2022-12-24T05:51:08.572Z,100868.31
2022-12-24T05:53:36.055Z,100871.31
2022-12-24T05:56:14.290Z,100878.81
2022-12-24T05:58:41.668Z,100891.38
2022-12-24T06:01:09.660Z,100879.28
2022-12-24T06:03:36.813Z,100890.13
2022-12-24T06:06:06.769Z,100900.97
2022-12-24T06:08:34.340Z,100908.53
2022-12-24T06:11:03.700Z,100911.09
2022-12-24T06:13:31.246Z,100903.53
2022-12-24T06:15:59.016Z,100916.09
2022-12-24T06:18:25.910Z,100906.75
2022-12-24T06:20:53.701Z,100903.09
2022-12-24T06:23:20.697Z,100890.78
2022-12-24T06:25:47.758Z,100882.47
2022-12-24T06:28:14.455Z,100873.13
2022-12-24T06:30:41.883Z,100873.59
2022-12-24T06:33:08.433Z,100880.34
2022-12-24T06:35:34.861Z,100877.50
2022-12-24T06:38:01.289Z,100877.78
2022-12-24T06:40:28.094Z,100889.06
2022-12-24T06:42:54.728Z,100881.69
2022-12-24T06:45:21.516Z,100878.03
2022-12-24T06:47:47.910Z,100880.19
2022-12-24T06:50:14.394Z,100871.72
2022-12-24T06:52:40.845Z,100876.59
2022-12-24T06:55:07.864Z,100879.16
2022-12-24T06:57:34.325Z,100884.75
2022-12-24T07:00:00.840Z,100883.25
2022-12-24T07:02:28.096Z,100871.16
2022-12-24T07:04:54.621Z,100873.59
2022-12-24T07:07:21.082Z,100884.41
2022-12-24T07:09:47.548Z,100884.75
2022-12-24T07:12:13.928Z,100900.72
2022-12-24T07:14:40.355Z,100911.56
2022-12-24T07:17:06.857Z,100926.34
2022-12-24T07:19:34.253Z,100930.88
2022-12-24T07:22:00.767Z,100942.31
2022-12-24T07:24:27.176Z,100952.56
2022-12-24T07:26:53.654Z,100944.75
2022-12-24T07:29:20.481Z,100932.06
2022-12-24T07:31:47.028Z,100929.25
2022-12-24T07:34:13.582Z,100951.41
2022-12-24T07:36:40.002Z,100964.63
2022-12-24T07:39:06.382Z,100956.63
2022-12-24T07:41:37.935Z,100959.50
2022-12-24T07:44:12.296Z,100967.69
2022-12-24T07:46:39.236Z,100959.56
2022-12-24T07:49:05.816Z,100958.78
2022-12-24T07:51:32.300Z,100964.81
2022-12-24T07:53:58.815Z,100966.47
2022-12-24T07:56:25.455Z,100962.25
2022-12-24T07:58:52.554Z,100958.06
2022-12-24T08:01:19.184Z,100970.72
2022-12-24T08:03:45.757Z,100974.94
2022-12-24T08:06:12.444Z,100985.78
2022-12-24T08:08:39.007Z,100979.28
2022-12-24T08:11:07.008Z,100970.13
2022-12-24T08:13:33.912Z,100972.25
2022-12-24T08:16:00.632Z,100981.91
2022-12-24T08:18:27.108Z,100983.09
2022-12-24T08:20:53.535Z,100993.69
2022-12-24T08:23:20.098Z,101005.44
2022-12-24T08:25:47.661Z,101001.50
2022-12-24T08:28:16.491Z,101003.47
2022-12-24T08:30:43.641Z,101005.28
2022-12-24T08:33:10.409Z,101012.97
2022-12-24T08:35:36.966Z,101001.81
2022-12-24T08:38:03.451Z,100995.34
2022-12-24T08:40:29.870Z,101005.59
2022-12-24T08:42:56.495Z,101005.44
2022-12-24T08:45:22.991Z,101008.72
2022-12-24T08:47:49.413Z,101004.53
2022-12-24T08:50:15.935Z,100991.84
2022-12-24T08:52:42.353Z,100991.44
2022-12-24T08:55:09.138Z,101009.06
2022-12-24T08:57:37.444Z,101022.78
2022-12-24T09:00:06.341Z,101021.75
2022-12-24T09:02:33.101Z,101017.88
2022-12-24T09:04:59.751Z,101014.84
2022-12-24T09:07:26.212Z,101005.19
2022-12-24T09:09:52.607Z,101000.06
2022-12-24T09:12:19.077Z,100999.00
2022-12-24T09:14:45.600Z,100997.97
2022-12-24T09:17:12.065Z,101005.81
2022-12-24T09:19:38.655Z,101010.66
2022-12-24T09:22:05.407Z,101025.09
2022-12-24T09:24:32.305Z,101023.13
2022-12-24T09:26:59.302Z,101027.53
2022-12-24T09:29:25.757Z,101030.81
2022-12-24T09:31:52.683Z,101027.66
2022-12-24T09:34:19.189Z,101037.78
2022-12-24T09:36:46.377Z,101035.06
2022-12-24T09:39:13.927Z,101050.91
2022-12-24T09:42:07.312Z,101065.69
2022-12-24T09:44:46.096Z,101068.84
2022-12-24T09:47:38.405Z,101048.94
2022-12-24T09:50:21.906Z,101054.25
2022-12-24T09:52:50.215Z,101056.22
2022-12-24T09:55:23.509Z,101066.59
2022-12-24T09:57:53.376Z,101053.19
2022-12-24T10:00:24.402Z,101069.63
2022-12-24T10:02:51.265Z,101062.88
2022-12-24T10:05:23.501Z,101055.91
2022-12-24T10:08:05.437Z,101061.94
2022-12-24T10:10:51.286Z,101048.69
2022-12-24T10:13:36.817Z,101041.44
2022-12-24T10:16:24.118Z,101036.28
2022-12-24T10:19:02.691Z,101038.13
2022-12-24T10:21:53.186Z,101039.31
2022-12-24T10:24:28.449Z,101052.16
2022-12-24T10:27:14.787Z,101058.13
2022-12-24T10:29:46.197Z,101055.38
2022-12-24T10:32:21.123Z,101060.78
2022-12-24T10:35:16.471Z,101069.06
2022-12-24T10:37:44.947Z,101069.72
2022-12-24T10:40:22.427Z,101063.09
2022-12-24T10:42:51.539Z,101062.91
2022-12-24T10:45:21.437Z,101071.53
2022-12-24T10:47:52.751Z,101072.44
2022-12-24T10:50:33.661Z,101070.78
2022-12-24T10:53:07.614Z,101073.81
2022-12-24T10:55:34.041Z,101063.28
2022-12-24T10:58:07.319Z,101049.09
2022-12-24T11:00:36.561Z,101040.97
2022-12-24T11:03:13.508Z,101039.72
2022-12-24T11:05:40.541Z,101048.50
2022-12-24T11:08:12.934Z,101050.94
2022-12-24T11:10:57.938Z,101043.22
2022-12-24T11:13:37.583Z,101039.94
2022-12-24T11:16:23.706Z,101065.44
2022-12-24T11:18:52.915Z,101069.03
2022-12-24T11:21:31.236Z,101058.94
2022-12-24T11:24:04.144Z,101059.69
2022-12-24T11:26:31.322Z,101059.09
2022-12-24T11:29:03.789Z,101055.16
2022-12-24T11:31:32.865Z,101063.91
2022-12-24T11:33:59.387Z,101053.81
2022-12-24T11:36:27.603Z,101047.03
2022-12-24T11:38:56.955Z,101042.22
2022-12-24T11:41:25.835Z,101033.16
2022-12-24T11:44:01.328Z,101032.25
2022-12-24T11:46:38.514Z,101038.91
2022-12-24T11:49:15.995Z,101037.69
2022-12-24T11:52:10.408Z,101028.63
2022-12-24T11:55:16.349Z,101037.09
2022-12-24T11:58:00.247Z,101034.50
2022-12-24T12:00:27.451Z,101032.09
2022-12-24T12:02:56.986Z,101049.88
2022-12-24T12:05:29.764Z,101043.13
2022-12-24T12:08:15.208Z,101048.53
2022-12-24T12:10:44.353Z,101034.22
2022-12-24T12:13:17.735Z,101028.00
2022-12-24T12:15:52.936Z,101039.50
2022-12-24T12:18:24.441Z,101036.75
2022-12-24T12:20:53.972Z,101047.78
2022-12-24T12:23:25.747Z,101058.66
2022-12-24T12:25:57.749Z,101078.13
2022-12-24T12:28:45.493Z,101077.53
2022-12-24T12:31:19.085Z,101068.31
2022-12-24T12:33:54.840Z,101066.06
2022-12-24T12:36:28.914Z,101068.19
2022-12-24T12:38:55.356Z,101064.56
2022-12-24T12:41:49.872Z,101071.81
2022-12-24T12:44:31.655Z,101073.19
2022-12-24T12:47:41.208Z,101062.44
2022-12-24T12:50:29.365Z,101058.53
2022-12-24T12:53:24.934Z,101056.72
2022-12-24T12:56:05.798Z,101055.97
2022-12-24T12:58:34.470Z,101056.72
2022-12-24T13:01:13.407Z,101055.22
2022-12-24T13:04:31.035Z,101044.97
2022-12-24T13:07:15.974Z,101039.03
2022-12-24T13:10:07.553Z,101056.41
2022-12-24T13:12:52.582Z,101061.09
2022-12-24T13:15:29.615Z,101062.75
2022-12-24T13:18:43.068Z,101064.25
2022-12-24T13:21:18.648Z,101063.66
2022-12-24T13:23:45.231Z,101057.03
2022-12-24T13:26:14.503Z,101065.50
2022-12-24T13:28:42.091Z,101067.00
2022-12-24T13:31:19.676Z,101067.13
2022-12-24T13:33:49.761Z,101065.31
2022-12-24T13:36:17.705Z,101067.13
2022-12-24T13:38:44.110Z,101070.63
2022-12-24T13:41:40.123Z,101070.63
2022-12-24T13:44:06.795Z,101083.59
2022-12-24T13:46:52.140Z,101092.97
2022-12-24T13:49:28.136Z,101090.22
2022-12-24T13:52:07.735Z,101087.66
2022-12-24T13:54:35.789Z,101085.09
2022-12-24T13:57:02.287Z,101091.75
2022-12-24T13:59:39.031Z,101082.41
2022-12-24T14:02:17.890Z,101079.84
2022-12-24T14:04:44.587Z,101087.06
2022-12-24T14:07:11.620Z,101092.94
2022-12-24T14:09:38.146Z,101093.53
2022-12-24T14:12:04.510Z,101105.03
2022-12-24T14:14:49.106Z,101117.25
2022-12-24T14:17:18.608Z,101110.00
2022-12-24T14:19:54.382Z,101105.63
2022-12-24T14:22:53.878Z,101104.44
2022-12-24T14:25:23.335Z,101108.78
2022-12-24T14:27:59.220Z,101118.00
2022-12-24T14:30:27.977Z,101119.66
2022-12-24T14:32:55.157Z,101116.81
2022-12-24T14:35:36.832Z,101113.63
2022-12-24T14:38:06.522Z,101109.09
2022-12-24T14:40:49.147Z,101111.94
2022-12-24T14:43:35.311Z,101106.81
2022-12-24T14:46:21.459Z,101113.13
2022-12-24T14:48:53.787Z,101111.63
2022-12-24T14:51:49.069Z,101113.44
2022-12-24T14:54:27.831Z,101113.44
2022-12-24T14:57:09.977Z,101117.53
2022-12-24T14:59:54.943Z,101120.41
2022-12-24T15:02:49.331Z,101111.94
2022-12-24T15:05:28.868Z,101114.50
2022-12-24T15:08:01.316Z,101118.25
2022-12-24T15:10:43.060Z,101117.97
2022-12-24T15:13:36.703Z,101125.31
2022-12-24T15:16:07.637Z,101127.41
2022-12-24T15:18:37.707Z,101134.19
2022-12-24T15:21:07.058Z,101131.78
2022-12-24T15:23:36.799Z,101134.34
2022-12-24T15:26:29.431Z,101144.78
2022-12-24T15:29:03.142Z,101154.44
2022-12-24T15:31:30.861Z,101160.00
2022-12-24T15:33:59.450Z,101172.66
2022-12-24T15:36:37.194Z,101177.47
2022-12-24T15:39:07.452Z,101173.91
2022-12-24T15:42:01.305Z,101174.75
2022-12-24T15:44:32.643Z,101189.41
2022-12-24T15:47:01.104Z,101198.19
2022-12-24T15:49:30.354Z,101203.56
2022-12-24T15:52:05.753Z,101209.59
2022-12-24T15:54:32.271Z,101210.94
2022-12-24T15:56:58.720Z,101213.34
2022-12-24T15:59:38.165Z,101215.59
2022-12-24T16:02:27.268Z,101215.91
2022-12-24T16:04:54.041Z,101221.94
2022-12-24T16:07:47.526Z,101217.41
2022-12-24T16:10:26.305Z,101226.16
2022-12-24T16:12:52.787Z,101229.78
2022-12-24T16:15:19.371Z,101226.94
2022-12-24T16:17:49.319Z,101232.97
2022-12-24T16:20:22.045Z,101234.75
2022-12-24T16:22:49.851Z,101239.56
2022-12-24T16:25:20.840Z,101241.94
2022-12-24T16:27:47.239Z,101250.00
2022-12-24T16:30:13.836Z,101251.50
2022-12-24T16:32:41.379Z,101258.09
2022-12-24T16:35:20.333Z,101260.47
2022-12-24T16:37:46.875Z,101259.88
2022-12-24T16:40:19.364Z,101261.94
2022-12-24T16:43:05.460Z,101267.78
2022-12-24T16:45:33.339Z,101270.00
2022-12-24T16:48:00.108Z,101266.59
2022-12-24T16:50:26.673Z,101265.53
2022-12-24T16:52:53.180Z,101263.97
2022-12-24T16:55:19.619Z,101276.22
2022-12-24T16:57:46.442Z,101269.25
2022-12-24T17:00:18.057Z,101271.25
2022-12-24T17:02:45.055Z,101275.28
2022-12-24T17:05:12.061Z,101279.28
2022-12-24T17:07:43.444Z,101277.53
2022-12-24T17:10:14.277Z,101277.81
2022-12-24T17:12:41.410Z,101289.56
2022-12-24T17:15:08.646Z,101282.59
2022-12-24T17:17:35.710Z,101278.44
2022-12-24T17:20:04.483Z,101291.66
2022-12-24T17:22:30.936Z,101289.69
2022-12-24T17:24:57.402Z,101284.31
2022-12-24T17:27:23.951Z,101291.09
2022-12-24T17:29:50.519Z,101294.22
2022-12-24T17:32:17.280Z,101289.69
2022-12-24T17:34:43.743Z,101286.41
2022-12-24T17:37:10.291Z,101291.53
2022-12-24T17:39:36.871Z,101289.09
2022-12-24T17:42:03.580Z,101292.59
2022-12-24T17:44:30.248Z,101284.63
2022-12-24T17:46:56.843Z,101287.41
2022-12-24T17:49:23.392Z,101283.72
2022-12-24T17:51:49.810Z,101296.47
2022-12-24T17:54:16.230Z,101301.19
2022-12-24T17:56:42.739Z,101295.88
2022-12-24T17:59:09.152Z,101297.97
2022-12-24T18:01:35.850Z,101299.31
2022-12-24T18:04:03.479Z,101305.53
2022-12-24T18:06:30.163Z,101306.91
2022-12-24T18:08:57.142Z,101308.41
2022-12-24T18:11:29.375Z,101308.81
2022-12-24T18:13:57.098Z,101312.44
2022-12-24T18:16:29.511Z,101309.88
2022-12-24T18:18:56.788Z,101318.66
2022-12-24T18:21:25.860Z,101318.34
2022-12-24T18:23:53.120Z,101318.75
2022-12-24T18:26:20.330Z,101323.13
2022-12-24T18:28:47.360Z,101320.13
2022-12-24T18:31:18.905Z,101318.47
2022-12-24T18:33:46.313Z,101319.06
2022-12-24T18:36:13.108Z,101314.69
2022-12-24T18:38:39.621Z,101319.66
2022-12-24T18:41:08.461Z,101332.78
2022-12-24T18:43:35.342Z,101334.75
2022-12-24T18:46:13.871Z,101331.78
2022-12-24T18:48:40.417Z,101335.13
2022-12-24T18:51:09.211Z,101332.56
2022-12-24T18:53:36.608Z,101342.81
2022-12-24T18:56:07.580Z,101340.97
2022-12-24T18:58:34.196Z,101342.06
2022-12-24T19:01:00.744Z,101345.97
2022-12-24T19:03:27.245Z,101349.44
2022-12-24T19:05:53.741Z,101350.50
2022-12-24T19:08:56.062Z,101354.88
2022-12-24T19:11:06.721Z,101355.78
2022-12-24T19:13:33.553Z,101356.72
2022-12-24T19:16:00.273Z,101358.88
2022-12-24T19:18:26.823Z,101354.88
2022-12-24T19:20:53.250Z,101357.44
2022-12-24T19:23:19.661Z,101361.16
2022-12-24T19:25:46.120Z,101360.09
2022-12-24T19:28:12.686Z,101362.97
2022-12-24T19:30:42.314Z,101365.72
2022-12-24T19:33:10.099Z,101373.91
2022-12-24T19:35:36.855Z,101366.56
2022-12-24T19:38:03.438Z,101368.78
2022-12-24T19:40:30.695Z,101376.16
2022-12-24T19:42:58.024Z,101383.09
2022-12-24T19:45:25.674Z,101379.38
2022-12-24T19:47:52.534Z,101383.00
2022-12-24T19:50:20.180Z,101393.63
2022-12-24T19:52:47.469Z,101395.44
2022-12-24T19:55:15.083Z,101389.22
2022-12-24T19:57:41.707Z,101403.50
2022-12-24T20:00:10.289Z,101395.69
2022-12-24T20:02:36.850Z,101401.34
2022-12-24T20:05:03.621Z,101402.06
2022-12-24T20:07:30.117Z,101409.75
2022-12-24T20:09:56.509Z,101415.22
2022-12-24T20:12:22.954Z,101423.66
2022-12-24T20:14:49.371Z,101421.09
2022-12-24T20:17:15.773Z,101427.13
2022-12-24T20:19:42.176Z,101418.88
2022-12-24T20:22:08.589Z,101429.13
2022-12-24T20:24:35.040Z,101440.53
2022-12-24T20:27:01.447Z,101431.41
2022-12-24T20:29:28.132Z,101435.22
2022-12-24T20:31:54.609Z,101432.25
2022-12-24T20:34:21.037Z,101424.75
2022-12-24T20:36:47.436Z,101424.41
2022-12-24T20:39:13.869Z,101440.94
2022-12-24T20:41:40.361Z,101439.09
2022-12-24T20:44:06.819Z,101434.28
2022-12-24T20:46:33.679Z,101429.53
2022-12-24T20:49:00.298Z,101439.41
2022-12-24T20:51:27.885Z,101433.78
2022-12-24T20:53:57.205Z,101433.25
2022-12-24T20:56:24.321Z,101433.59
2022-12-24T20:58:50.906Z,101432.84
2022-12-24T21:01:20.735Z,101436.16
2022-12-24T21:03:47.564Z,101436.16
2022-12-24T21:06:15.558Z,101444.41
2022-12-24T21:08:42.672Z,101446.41
2022-12-24T21:11:27.390Z,101449.16
2022-12-24T21:13:53.853Z,101450.06
2022-12-24T21:16:20.433Z,101447.50
2022-12-24T21:18:46.946Z,101444.81
2022-12-24T21:21:13.436Z,101456.38
2022-12-24T21:23:39.972Z,101451.59
2022-12-24T21:26:06.468Z,101454.81
2022-12-24T21:28:33.246Z,101462.94
2022-12-24T21:30:59.746Z,101461.84
2022-12-24T21:33:26.539Z,101465.31
2022-12-24T21:35:59.901Z,101465.31
2022-12-24T21:38:26.534Z,101464.06
2022-12-24T21:41:21.662Z,101458.22
2022-12-24T21:43:48.085Z,101464.81
2022-12-24T21:46:22.130Z,101466.47
2022-12-24T21:49:12.457Z,101467.38
2022-12-24T21:51:39.508Z,101475.06
2022-12-24T21:54:25.604Z,101468.09
2022-12-24T21:57:12.565Z,101465.41
2022-12-24T21:59:39.282Z,101456.81
2022-12-24T22:02:07.080Z,101474.56
2022-12-24T22:04:34.428Z,101480.94
2022-12-24T22:07:19.469Z,101481.44
2022-12-24T22:10:04.223Z,101483.69
2022-12-24T22:12:33.287Z,101487.91
2022-12-24T22:15:00.140Z,101487.31
2022-12-24T22:17:28.606Z,101490.78
2022-12-24T22:19:55.381Z,101486.25
2022-12-24T22:22:22.514Z,101484.25
2022-12-24T22:24:48.962Z,101484.84
2022-12-24T22:27:15.440Z,101492.34
2022-12-24T22:29:41.964Z,101494.19
2022-12-24T22:32:08.384Z,101487.22
2022-12-24T22:34:36.009Z,101483.56
2022-12-24T22:37:02.461Z,101485.41
2022-12-24T22:39:28.954Z,101487.56
2022-12-24T22:41:57.855Z,101482.09
2022-12-24T22:44:24.892Z,101484.66
2022-12-24T22:46:51.450Z,101489.06
2022-12-24T22:49:17.882Z,101487.56
2022-12-24T22:51:44.298Z,101499.31
2022-12-24T22:54:10.943Z,101490.88
2022-12-24T22:56:41.265Z,101499.63
2022-12-24T22:59:09.094Z,101510.81
2022-12-24T23:01:40.012Z,101514.97
2022-12-24T23:04:07.150Z,101510.91
2022-12-24T23:06:34.459Z,101518.78
2022-12-24T23:09:01.497Z,101527.00
2022-12-24T23:11:27.992Z,101522.97
2022-12-24T23:14:12.934Z,101524.28
2022-12-24T23:16:39.419Z,101529.41
2022-12-24T23:19:06.728Z,101528.69
2022-12-24T23:21:33.700Z,101534.31
2022-12-24T23:24:01.772Z,101536.56
2022-12-24T23:26:29.236Z,101534.38
2022-12-24T23:28:56.785Z,101533.31
2022-12-24T23:31:24.430Z,101541.34
2022-12-24T23:33:51.262Z,101540.97
2022-12-24T23:36:17.782Z,101543.53
2022-12-24T23:38:44.390Z,101543.16
2022-12-24T23:41:11.450Z,101546.13
2022-12-24T23:43:37.958Z,101548.53
2022-12-24T23:46:04.659Z,101551.25
2022-12-24T23:48:31.175Z,101549.13
2022-12-24T23:51:09.726Z,101541.97
2022-12-24T23:53:36.597Z,101546.94
2022-12-24T23:56:04.312Z,101541.97
2022-12-24T23:58:31.172Z,101534.47
